Trabzon, Turkey
Current Conditions -  °F | °C
As of 4:20 AM on Saturday 25 Oct 2014 (Local Time) from LTCG Reporting Station
Broken Clouds Broken Clouds  
Wind Chill: 66°   Ceiling: 9000
Heat Index: 66°   Visibility: 6mi
Dew Point: 61°   Wind: 8mph
Humidity: 83%   Direction: 70°ENE
Pressure: 30.03"   Gusts: NA
Location:  41°N, 39.71°E
Report Text: LTCG 250120Z 07007KT 020V110 9999 FEW015 SCT035 BKN090 19/16 Q1017 NOSIG
Loading
Personal Weather Stations






























Interactive Weather Map
Tropical Storm Tracking
New forecast layout! Learn more

10-Day Weather Forecast

Advertisements
Track Severe Weather on mobile